createdAt,value
2022-12-27T00:00:00.150Z,4.69
2022-12-27T00:05:00.148Z,4.69
2022-12-27T00:10:00.177Z,4.5
2022-12-27T00:15:00.121Z,4.38
2022-12-27T00:20:02.925Z,4.31
2022-12-27T00:25:00.140Z,4.31
2022-12-27T00:30:00.142Z,4.31
2022-12-27T00:35:00.153Z,4.31
2022-12-27T00:40:00.146Z,4.31
2022-12-27T00:45:00.169Z,4.38
2022-12-27T00:50:00.132Z,4.38
2022-12-27T00:55:00.122Z,4.25
2022-12-27T01:00:03.452Z,4.19
2022-12-27T01:05:00.147Z,4.19
2022-12-27T01:10:00.139Z,4.06
2022-12-27T01:15:00.106Z,4.13
2022-12-27T01:20:00.123Z,4.13
2022-12-27T01:25:00.176Z,4
2022-12-27T01:30:00.118Z,3.88
2022-12-27T01:35:00.111Z,3.81
2022-12-27T01:40:00.146Z,3.63
2022-12-27T01:45:00.141Z,3.56
2022-12-27T01:50:00.142Z,3.5
2022-12-27T01:55:00.124Z,3.44
2022-12-27T02:00:00.161Z,3.38
2022-12-27T02:05:00.138Z,3.31
2022-12-27T02:10:00.110Z,3.19
2022-12-27T02:15:00.127Z,3.13
2022-12-27T02:20:00.138Z,3.13
2022-12-27T02:25:00.155Z,3.06
2022-12-27T02:30:00.116Z,3.06
2022-12-27T02:35:00.095Z,3
2022-12-27T02:40:00.138Z,3
2022-12-27T02:45:00.170Z,2.94
2022-12-27T02:50:00.123Z,2.94
2022-12-27T02:55:00.109Z,2.81
2022-12-27T03:00:00.194Z,2.81
2022-12-27T03:05:00.206Z,2.69
2022-12-27T03:10:00.100Z,2.56
2022-12-27T03:15:00.128Z,2.5
2022-12-27T03:20:00.212Z,2.38
2022-12-27T03:25:00.127Z,2.31
2022-12-27T03:30:00.124Z,2.19
2022-12-27T03:35:00.117Z,2.13
2022-12-27T03:40:00.121Z,2.06
2022-12-27T03:45:00.147Z,2.06
2022-12-27T03:50:00.127Z,2.19
2022-12-27T03:55:00.130Z,2.31
2022-12-27T04:00:00.167Z,2.38
2022-12-27T04:05:00.139Z,2.44
2022-12-27T04:10:00.117Z,2.44
2022-12-27T04:15:00.121Z,2.44
2022-12-27T04:20:00.144Z,2.44
2022-12-27T04:25:00.144Z,2.38
2022-12-27T04:30:00.129Z,2.19
2022-12-27T04:35:00.117Z,2.06
2022-12-27T04:40:00.144Z,2.06
2022-12-27T04:45:00.211Z,2.06
2022-12-27T04:50:00.135Z,1.94
2022-12-27T04:55:00.100Z,1.81
2022-12-27T05:00:00.191Z,1.88
2022-12-27T05:05:00.137Z,1.75
2022-12-27T05:10:00.123Z,1.69
2022-12-27T05:15:00.129Z,1.63
2022-12-27T05:20:00.153Z,1.63
2022-12-27T05:25:00.185Z,1.56
2022-12-27T05:30:00.136Z,1.63
2022-12-27T05:35:00.109Z,1.69
2022-12-27T05:40:00.113Z,1.75
2022-12-27T05:45:00.120Z,1.88
2022-12-27T05:50:00.129Z,1.94
2022-12-27T05:55:00.124Z,1.94
2022-12-27T06:00:00.171Z,2
2022-12-27T06:05:00.141Z,2.06
2022-12-27T06:10:00.139Z,2
2022-12-27T06:15:00.131Z,2.06
2022-12-27T06:20:00.145Z,2.13
2022-12-27T06:25:00.165Z,2.13
2022-12-27T06:30:00.128Z,2.19
2022-12-27T06:35:00.142Z,2.25
2022-12-27T06:40:00.130Z,2.19
2022-12-27T06:45:00.170Z,2.19
2022-12-27T06:50:00.150Z,2.25
2022-12-27T06:55:00.124Z,2.19
2022-12-27T07:00:00.149Z,2.19
2022-12-27T07:05:00.162Z,2.19
2022-12-27T07:10:00.141Z,2.19
2022-12-27T07:15:00.129Z,2.19
2022-12-27T07:20:00.106Z,2.31
2022-12-27T07:25:00.195Z,2.31
2022-12-27T07:30:00.168Z,2.44
2022-12-27T07:35:00.139Z,2.56
2022-12-27T07:40:00.147Z,2.75
2022-12-27T07:45:00.132Z,3.06
2022-12-27T07:50:00.147Z,3.25
2022-12-27T07:55:00.127Z,3.44
2022-12-27T08:00:00.151Z,3.5
2022-12-27T08:05:00.178Z,3.44
2022-12-27T08:10:00.121Z,3.44
2022-12-27T08:15:00.107Z,3.44
2022-12-27T08:20:00.102Z,3.5
2022-12-27T08:25:00.142Z,3.56
2022-12-27T08:30:00.169Z,3.56
2022-12-27T08:35:18.208Z,3.63
2022-12-27T08:40:02.786Z,3.69
2022-12-27T08:45:00.177Z,3.81
2022-12-27T08:50:00.144Z,3.88
2022-12-27T08:55:00.132Z,4.19
2022-12-27T09:00:00.218Z,4.88
2022-12-27T09:05:00.172Z,5.31
2022-12-27T09:10:00.121Z,5.13
2022-12-27T09:15:00.149Z,5.5
2022-12-27T09:20:00.162Z,5.88
2022-12-27T09:25:00.223Z,6.13
2022-12-27T09:30:00.157Z,6.19
2022-12-27T09:35:00.103Z,6.13
2022-12-27T09:40:00.141Z,6.19
2022-12-27T09:45:00.130Z,6.06
2022-12-27T09:50:00.136Z,6.31
2022-12-27T09:55:04.596Z,6.56
2022-12-27T10:00:00.147Z,6.56
2022-12-27T10:10:00.199Z,6.69
2022-12-27T10:15:00.158Z,6.75
2022-12-27T10:20:00.096Z,6.69
2022-12-27T10:25:00.201Z,6.63
2022-12-27T10:30:00.229Z,6.56
2022-12-27T10:35:00.183Z,6.31
2022-12-27T10:40:00.125Z,6.38
2022-12-27T10:45:00.141Z,6.19
2022-12-27T10:50:00.134Z,6.13
2022-12-27T10:55:00.118Z,6.19
2022-12-27T11:00:00.305Z,5.88
2022-12-27T11:05:00.220Z,5.69
2022-12-27T11:10:00.152Z,5.56
2022-12-27T11:15:00.128Z,5.44
2022-12-27T11:20:00.129Z,5.5
2022-12-27T11:25:00.280Z,5.56
2022-12-27T11:30:00.168Z,5.44
2022-12-27T11:35:00.111Z,5.5
2022-12-27T11:40:00.127Z,5.63
2022-12-27T11:45:00.138Z,5.69
2022-12-27T11:50:00.130Z,5.88
2022-12-27T11:55:00.089Z,5.94
2022-12-27T12:00:00.171Z,5.94
2022-12-27T12:05:00.199Z,6
2022-12-27T12:10:00.290Z,6.06
2022-12-27T12:15:00.142Z,6
2022-12-27T12:20:00.158Z,6.06
2022-12-27T12:25:00.216Z,6
2022-12-27T12:30:00.154Z,6.06
2022-12-27T12:35:00.150Z,6.19
2022-12-27T12:40:00.139Z,6.19
2022-12-27T12:45:00.193Z,6.19
2022-12-27T12:50:00.141Z,6.06
2022-12-27T12:55:00.151Z,6.06
2022-12-27T13:00:00.162Z,6.25
2022-12-27T13:05:00.168Z,6.38
2022-12-27T13:10:00.178Z,6.38
2022-12-27T13:15:00.092Z,6.44
2022-12-27T13:20:00.299Z,6.56
2022-12-27T13:25:00.186Z,6.81
2022-12-27T13:30:04.663Z,6.88
2022-12-27T13:35:00.119Z,6.81
2022-12-27T13:40:00.150Z,6.63
2022-12-27T13:45:00.196Z,6.44
2022-12-27T13:50:00.210Z,6.19
2022-12-27T13:55:00.147Z,6.13
2022-12-27T14:00:00.178Z,6.06
2022-12-27T14:05:00.169Z,6.06
2022-12-27T14:10:00.132Z,6
2022-12-27T14:15:00.124Z,5.88
2022-12-27T14:20:00.199Z,5.88
2022-12-27T14:25:00.189Z,5.81
2022-12-27T14:30:00.160Z,5.69
2022-12-27T14:35:00.217Z,5.69
2022-12-27T14:40:00.187Z,5.69
2022-12-27T14:45:00.139Z,5.63
2022-12-27T14:50:00.199Z,5.56
2022-12-27T14:55:00.113Z,5.5
2022-12-27T15:00:00.152Z,5.31
2022-12-27T15:05:00.147Z,5.31
2022-12-27T15:10:00.157Z,5.19
2022-12-27T15:15:00.136Z,5.13
2022-12-27T15:20:00.132Z,5.06
2022-12-27T15:25:00.145Z,4.94
2022-12-27T15:30:00.127Z,4.88
2022-12-27T15:35:00.151Z,4.88
2022-12-27T15:40:00.127Z,4.88
2022-12-27T15:45:00.147Z,4.81
2022-12-27T15:50:00.134Z,4.75
2022-12-27T15:55:00.145Z,4.81
2022-12-27T16:00:00.316Z,4.69
2022-12-27T16:05:00.137Z,4.56
2022-12-27T16:10:00.191Z,4.5
2022-12-27T16:15:00.121Z,4.44
2022-12-27T16:20:00.146Z,4.44
2022-12-27T16:25:00.192Z,4.44
2022-12-27T16:30:00.135Z,4.44
2022-12-27T16:35:00.135Z,4.38
2022-12-27T16:40:00.104Z,4.38
2022-12-27T16:45:00.166Z,4.38
2022-12-27T16:50:00.203Z,4.38
2022-12-27T16:55:00.124Z,4.31
2022-12-27T17:00:00.192Z,4.25
2022-12-27T17:05:00.193Z,4.25
2022-12-27T17:10:00.150Z,4.25
2022-12-27T17:15:00.156Z,4.25
2022-12-27T17:20:00.163Z,4.31
2022-12-27T17:25:00.182Z,4.31
2022-12-27T17:30:00.122Z,4.38
2022-12-27T17:35:00.134Z,4.38
2022-12-27T17:40:00.191Z,4.38
2022-12-27T17:45:00.140Z,4.38
2022-12-27T17:50:00.103Z,4.31
2022-12-27T17:55:00.091Z,4.44
2022-12-27T18:00:00.180Z,4.5
2022-12-27T18:05:00.154Z,4.56
2022-12-27T18:10:00.133Z,4.56
2022-12-27T18:15:00.111Z,4.56
2022-12-27T18:20:00.122Z,4.63
2022-12-27T18:25:00.153Z,4.63
2022-12-27T18:30:00.140Z,4.63
2022-12-27T18:35:00.119Z,4.69
2022-12-27T18:40:00.129Z,4.63
2022-12-27T18:45:00.155Z,4.63
2022-12-27T18:50:00.113Z,4.63
2022-12-27T18:55:00.094Z,4.63
2022-12-27T19:00:00.122Z,4.63
2022-12-27T19:05:00.165Z,4.63
2022-12-27T19:10:00.130Z,4.69
2022-12-27T19:15:00.127Z,4.63
2022-12-27T19:20:00.094Z,4.56
2022-12-27T19:25:00.169Z,4.5
2022-12-27T19:30:00.147Z,4.38
2022-12-27T19:35:00.092Z,4.31
2022-12-27T19:40:00.158Z,4.19
2022-12-27T19:45:00.169Z,4.19
2022-12-27T19:50:00.115Z,4.19
2022-12-27T19:55:00.140Z,4.13
2022-12-27T20:00:00.200Z,4.06
2022-12-27T20:05:00.150Z,4.06
2022-12-27T20:10:00.121Z,4
2022-12-27T20:15:00.149Z,3.88
2022-12-27T20:20:00.111Z,3.75
2022-12-27T20:25:00.147Z,3.69
2022-12-27T20:30:00.188Z,3.63
2022-12-27T20:35:00.124Z,3.56
2022-12-27T20:40:00.138Z,3.56
2022-12-27T20:45:00.173Z,3.56
2022-12-27T20:50:00.140Z,3.5
2022-12-27T20:55:00.150Z,3.5
2022-12-27T21:00:00.146Z,3.44
2022-12-27T21:05:00.142Z,3.31
2022-12-27T21:10:00.087Z,3.25
2022-12-27T21:15:00.135Z,3.19
2022-12-27T21:20:00.124Z,3.19
2022-12-27T21:25:00.162Z,3.19
2022-12-27T21:30:00.151Z,3.19
2022-12-27T21:35:00.146Z,3.19
2022-12-27T21:40:00.109Z,3.31
2022-12-27T21:45:00.178Z,3.44
2022-12-27T21:50:00.123Z,3.5
2022-12-27T21:55:00.112Z,3.56
2022-12-27T22:00:00.152Z,3.63
2022-12-27T22:05:00.156Z,3.69
2022-12-27T22:10:00.077Z,3.69
2022-12-27T22:15:00.126Z,3.69
2022-12-27T22:20:00.112Z,3.81
2022-12-27T22:25:00.172Z,3.81
2022-12-27T22:30:00.142Z,3.88
2022-12-27T22:35:00.132Z,3.88
2022-12-27T22:40:00.139Z,3.81
2022-12-27T22:45:00.163Z,3.81
2022-12-27T22:50:00.140Z,3.75
2022-12-27T22:55:03.879Z,3.81
2022-12-27T23:00:00.147Z,3.81
2022-12-27T23:05:00.187Z,3.88
2022-12-27T23:10:00.103Z,3.88
2022-12-27T23:15:00.130Z,3.88
2022-12-27T23:20:00.078Z,3.94
2022-12-27T23:25:00.129Z,3.94
2022-12-27T23:30:00.162Z,4
2022-12-27T23:35:00.120Z,4
2022-12-27T23:40:00.113Z,3.94
2022-12-27T23:45:00.139Z,3.94
2022-12-27T23:50:00.128Z,3.94
2022-12-27T23:55:00.129Z,4
